Time;durP1;ratioP1;P1;durP2;ratioP2;P2;SDS_P1;SDS_P2;PMS_P1;PMS_P2;Temp;Humidity;BMP_temperature;BMP_pressure;BME280_temperature;BME280_humidity;BME280_pressure;Samples;Min_cycle;Max_cycle;Signal;HPM_P1;HPM_P2
2023/04/23 00:03:36;;;;;;;;;;;17.50;66.70;;;;;;10249986;28;94585;-61
2023/04/23 00:08:41;;;;;;;;;;;17.50;66.70;;;;;;10249070;28;94483;-62
2023/04/23 00:13:45;;;;;;;;;;;17.40;66.70;;;;;;10249512;28;92651;-61
2023/04/23 00:18:48;;;;;;;;;;;17.50;66.70;;;;;;10249095;28;93339;-61
2023/04/23 00:23:49;;;;;;;;;;;17.50;66.70;;;;;;10249352;28;94714;-61
2023/04/23 00:28:51;;;;;;;;;;;17.40;66.50;;;;;;10246522;28;96829;-61
2023/04/23 00:33:53;;;;;;;;;;;17.40;66.60;;;;;;10249187;28;94204;-61
2023/04/23 00:38:55;;;;;;;;;;;17.40;66.50;;;;;;10248180;28;93250;-61
2023/04/23 00:43:58;;;;;;;;;;;17.40;66.50;;;;;;10247925;28;93981;-61
2023/04/23 00:49:00;;;;;;;;;;;17.40;66.40;;;;;;10246721;28;93513;-61
2023/04/23 00:54:02;;;;;;;;;;;17.40;66.40;;;;;;10214686;28;94420;-61
2023/04/23 00:59:04;;;;;;;;;;;17.50;66.40;;;;;;10247345;28;93659;-61
2023/04/23 01:04:08;;;;;;;;;;;17.40;66.20;;;;;;10247883;28;92699;-61
2023/04/23 01:09:10;;;;;;;;;;;17.40;66.20;;;;;;10248020;28;94457;-61
2023/04/23 01:14:11;;;;;;;;;;;17.40;66.10;;;;;;10229416;28;92647;-61
2023/04/23 01:19:15;;;;;;;;;;;17.40;66.10;;;;;;10245049;28;96366;-61
2023/04/23 01:24:16;;;;;;;;;;;17.40;66.10;;;;;;10246441;28;94502;-61
2023/04/23 01:29:18;;;;;;;;;;;17.40;66.00;;;;;;10229166;28;93710;-61
2023/04/23 01:34:21;;;;;;;;;;;17.40;66.00;;;;;;10246759;28;94532;-61
2023/04/23 01:39:22;;;;;;;;;;;17.40;66.00;;;;;;10246239;28;93878;-61
2023/04/23 01:44:24;;;;;;;;;;;17.40;65.90;;;;;;10246746;28;94414;-61
2023/04/23 01:49:26;;;;;;;;;;;17.40;65.90;;;;;;10244824;28;94493;-61
2023/04/23 01:54:28;;;;;;;;;;;17.30;65.80;;;;;;10247488;28;93745;-61
2023/04/23 01:59:29;;;;;;;;;;;17.30;65.70;;;;;;10245612;28;94517;-61
2023/04/23 02:04:32;;;;;;;;;;;17.30;65.70;;;;;;10252698;28;94364;-61
2023/04/23 02:09:34;;;;;;;;;;;17.30;65.70;;;;;;10250783;28;96255;-61
2023/04/23 02:14:35;;;;;;;;;;;17.30;65.60;;;;;;10251354;28;93577;-61
2023/04/23 02:19:37;;;;;;;;;;;17.30;65.50;;;;;;10252238;28;93399;-61
2023/04/23 02:24:40;;;;;;;;;;;17.30;65.50;;;;;;10251978;28;93506;-62
2023/04/23 02:29:43;;;;;;;;;;;17.30;65.50;;;;;;10252181;28;94707;-61
2023/04/23 02:34:45;;;;;;;;;;;17.30;65.50;;;;;;10252102;28;93438;-61
2023/04/23 02:39:46;;;;;;;;;;;17.20;65.40;;;;;;10250972;28;93214;-61
2023/04/23 02:44:48;;;;;;;;;;;17.20;65.40;;;;;;10252569;28;92743;-61
2023/04/23 02:49:50;;;;;;;;;;;17.20;65.40;;;;;;10250753;28;94392;-61
2023/04/23 02:54:52;;;;;;;;;;;17.20;65.50;;;;;;10251613;28;94135;-61
2023/04/23 02:59:54;;;;;;;;;;;17.20;65.40;;;;;;10248628;28;96041;-61
2023/04/23 03:04:55;;;;;;;;;;;17.20;65.40;;;;;;10250530;28;93492;-62
2023/04/23 03:09:57;;;;;;;;;;;17.20;65.40;;;;;;10234975;28;96149;-61
2023/04/23 03:14:59;;;;;;;;;;;17.20;65.40;;;;;;10233519;28;93512;-61
2023/04/23 03:20:01;;;;;;;;;;;17.20;65.40;;;;;;10233592;28;93783;-62
2023/04/23 03:25:03;;;;;;;;;;;17.10;65.30;;;;;;10249627;28;93278;-61
2023/04/23 03:30:06;;;;;;;;;;;17.10;65.30;;;;;;10232947;28;94503;-61
2023/04/23 03:35:08;;;;;;;;;;;17.20;65.40;;;;;;10250808;28;93913;-61
2023/04/23 03:40:10;;;;;;;;;;;17.10;65.30;;;;;;10249576;28;93195;-61
2023/04/23 03:45:12;;;;;;;;;;;17.10;65.30;;;;;;10249735;28;93467;-61
2023/04/23 05:02:58;;;;;;;;;;;17.20;65.60;;;;;;10225107;28;94268;-61
2023/04/23 05:08:01;;;;;;;;;;;17.30;65.70;;;;;;10189173;28;94406;-67
2023/04/23 05:13:03;;;;;;;;;;;17.30;65.70;;;;;;10205144;28;93549;-66
2023/04/23 05:18:05;;;;;;;;;;;17.30;65.70;;;;;;10206981;28;92485;-66
2023/04/23 05:23:06;;;;;;;;;;;17.30;65.70;;;;;;10207773;28;94451;-66
2023/04/23 05:28:08;;;;;;;;;;;17.40;65.70;;;;;;10207517;28;93462;-66
2023/04/23 05:33:11;;;;;;;;;;;17.30;65.80;;;;;;10191463;28;92757;-67
2023/04/23 05:38:13;;;;;;;;;;;17.30;65.80;;;;;;10217666;28;93617;-66
2023/04/23 05:43:15;;;;;;;;;;;17.40;65.90;;;;;;10221161;28;94028;-66
2023/04/23 05:48:17;;;;;;;;;;;17.30;65.90;;;;;;10215186;28;95760;-66
2023/04/23 05:53:18;;;;;;;;;;;17.30;66.00;;;;;;10202716;28;94446;-66
2023/04/23 05:58:20;;;;;;;;;;;17.30;66.10;;;;;;10219627;28;93610;-66
2023/04/23 06:03:22;;;;;;;;;;;17.30;66.20;;;;;;10202983;28;94347;-67
2023/04/23 06:08:24;;;;;;;;;;;17.30;66.20;;;;;;10219677;28;92928;-66
2023/04/23 06:13:27;;;;;;;;;;;17.30;66.30;;;;;;10219756;28;93616;-66
2023/04/23 06:18:28;;;;;;;;;;;17.30;66.40;;;;;;10219015;28;93692;-66
2023/04/23 06:23:31;;;;;;;;;;;17.30;66.50;;;;;;10219927;28;93469;-67
2023/04/23 06:28:32;;;;;;;;;;;17.30;66.50;;;;;;10202131;28;93698;-67
2023/04/23 06:33:35;;;;;;;;;;;17.30;66.50;;;;;;10218966;28;94479;-65
2023/04/23 06:38:37;;;;;;;;;;;17.30;66.60;;;;;;10199050;28;96360;-65
2023/04/23 06:43:39;;;;;;;;;;;17.30;66.70;;;;;;10219284;28;92870;-65
2023/04/23 06:48:41;;;;;;;;;;;17.30;66.80;;;;;;10213134;28;93587;-66
2023/04/23 06:53:42;;;;;;;;;;;17.30;66.70;;;;;;10212846;28;93021;-66
2023/04/23 06:58:44;;;;;;;;;;;17.30;66.80;;;;;;10211140;28;94516;-66
2023/04/23 07:03:48;;;;;;;;;;;17.40;66.90;;;;;;10210791;28;94188;-66
2023/04/23 07:08:49;;;;;;;;;;;17.40;66.80;;;;;;10212267;28;94512;-66
2023/04/23 07:13:51;;;;;;;;;;;17.40;66.70;;;;;;10211250;28;92802;-65
2023/04/23 07:18:53;;;;;;;;;;;17.40;66.60;;;;;;10193296;28;93517;-67
2023/04/23 07:23:55;;;;;;;;;;;17.40;66.70;;;;;;10211317;28;93375;-66
2023/04/23 07:28:57;;;;;;;;;;;17.40;67.60;;;;;;10207547;28;96250;-65
2023/04/23 07:33:58;;;;;;;;;;;17.50;67.70;;;;;;10211090;28;94588;-67
2023/04/23 07:39:00;;;;;;;;;;;17.50;68.10;;;;;;10211792;28;93595;-65
2023/04/23 07:44:03;;;;;;;;;;;17.60;68.30;;;;;;10210508;28;94338;-65
2023/04/23 07:49:06;;;;;;;;;;;17.60;67.90;;;;;;10209532;28;94522;-65
2023/04/23 07:54:08;;;;;;;;;;;17.60;67.90;;;;;;10193039;28;94595;-65
2023/04/23 07:59:10;;;;;;;;;;;17.50;67.70;;;;;;10207557;28;93441;-65
2023/04/23 08:04:12;;;;;;;;;;;17.50;67.80;;;;;;10210914;28;93737;-65
2023/04/23 08:09:15;;;;;;;;;;;17.50;67.80;;;;;;10193198;28;94914;-65
2023/04/23 08:14:17;;;;;;;;;;;17.50;67.80;;;;;;10210709;28;94766;-65
2023/04/23 08:19:18;;;;;;;;;;;17.40;67.70;;;;;;10207344;28;95880;-65
2023/04/23 08:24:20;;;;;;;;;;;17.40;68.70;;;;;;10208838;28;93664;-65
2023/04/23 08:29:22;;;;;;;;;;;17.40;67.60;;;;;;10192151;28;94544;-66
2023/04/23 08:34:24;;;;;;;;;;;17.40;67.60;;;;;;10191136;28;93354;-66
2023/04/23 08:39:26;;;;;;;;;;;17.40;67.50;;;;;;10208693;28;93414;-66
2023/04/23 08:44:29;;;;;;;;;;;17.40;67.40;;;;;;10208275;28;93606;-66
2023/04/23 08:49:32;;;;;;;;;;;17.40;67.30;;;;;;10207151;28;94534;-66
2023/04/23 08:54:36;;;;;;;;;;;17.50;67.30;;;;;;10208894;28;92498;-66
2023/04/23 08:59:38;;;;;;;;;;;17.50;67.20;;;;;;10207763;28;93637;-66
2023/04/23 09:04:40;;;;;;;;;;;17.50;67.20;;;;;;10208059;28;93591;-66
2023/04/23 09:09:43;;;;;;;;;;;17.50;67.10;;;;;;10206523;28;95810;-66
2023/04/23 09:14:45;;;;;;;;;;;17.50;67.10;;;;;;10209554;28;94469;-66
2023/04/23 09:19:49;;;;;;;;;;;17.50;67.00;;;;;;10208121;28;94058;-66
2023/04/23 09:24:52;;;;;;;;;;;17.60;66.90;;;;;;10208322;28;94513;-66
2023/04/23 09:29:56;;;;;;;;;;;17.60;66.80;;;;;;10208477;28;94679;-66
2023/04/23 09:34:58;;;;;;;;;;;17.70;66.70;;;;;;10208005;28;94612;-66
2023/04/23 09:40:01;;;;;;;;;;;17.70;66.60;;;;;;10206893;28;93117;-65
2023/04/23 09:45:04;;;;;;;;;;;17.80;66.60;;;;;;10208507;28;93222;-66
2023/04/23 09:50:09;;;;;;;;;;;17.80;66.30;;;;;;10205818;28;93837;-66
2023/04/23 09:55:10;;;;;;;;;;;17.90;66.20;;;;;;10206837;28;94550;-66
2023/04/23 10:00:14;;;;;;;;;;;18.00;66.10;;;;;;10203576;28;97073;-66
2023/04/23 10:05:20;;;;;;;;;;;18.10;65.90;;;;;;10205759;28;93439;-66
2023/04/23 10:10:29;;;;;;;;;;;18.10;65.70;;;;;;10207123;28;93804;-66
2023/04/23 10:15:33;;;;;;;;;;;18.20;65.70;;;;;;10205955;28;94166;-66
2023/04/23 10:20:36;;;;;;;;;;;18.20;65.50;;;;;;10205947;28;94546;-66
2023/04/23 10:25:38;;;;;;;;;;;18.30;65.50;;;;;;10194764;28;94571;-66
2023/04/23 10:30:41;;;;;;;;;;;18.20;65.50;;;;;;10213443;28;94429;-66
2023/04/23 10:35:42;;;;;;;;;;;18.20;65.40;;;;;;10213820;28;92735;-66
2023/04/23 10:40:45;;;;;;;;;;;18.20;65.40;;;;;;10212481;28;94086;-66
2023/04/23 10:45:48;;;;;;;;;;;18.20;65.30;;;;;;10195059;28;94785;-66
2023/04/23 10:50:56;;;;;;;;;;;18.20;65.30;;;;;;10209472;28;96407;-66
2023/04/23 10:56:19;;;;;;;;;;;18.20;65.30;;;;;;10213611;28;95035;-65
2023/04/23 11:01:24;;;;;;;;;;;18.20;65.20;;;;;;10212243;28;114052;-66
2023/04/23 11:06:44;;;;;;;;;;;18.30;65.30;;;;;;10213474;28;93006;-66
2023/04/23 11:11:46;;;;;;;;;;;18.30;64.40;;;;;;10194831;28;93509;-68
2023/04/23 11:16:48;;;;;;;;;;;18.20;62.60;;;;;;10211560;28;93119;-69
2023/04/23 11:21:57;;;;;;;;;;;18.30;64.20;;;;;;10210429;28;93636;-67
2023/04/23 11:27:00;;;;;;;;;;;18.40;67.10;;;;;;10211652;28;92967;-66
2023/04/23 11:32:04;;;;;;;;;;;18.50;67.60;;;;;;10226052;28;93514;-64
2023/04/23 11:37:08;;;;;;;;;;;18.70;67.90;;;;;;10210167;28;94693;-67
2023/04/23 11:42:13;;;;;;;;;;;18.80;67.20;;;;;;10208507;28;97257;-67
2023/04/23 11:47:17;;;;;;;;;;;18.90;66.70;;;;;;10193367;28;94512;-66
2023/04/23 11:52:19;;;;;;;;;;;18.90;64.30;;;;;;10210330;28;93558;-65
2023/04/23 11:57:21;;;;;;;;;;;18.90;62.60;;;;;;10193337;28;94519;-65
2023/04/23 12:02:23;;;;;;;;;;;18.90;62.80;;;;;;10209863;28;94865;-66
2023/04/23 12:07:31;;;;;;;;;;;19.00;62.40;;;;;;10209892;28;93911;-67
2023/04/23 12:12:36;;;;;;;;;;;19.00;60.60;;;;;;10209316;28;94113;-66
2023/04/23 12:17:37;;;;;;;;;;;18.90;60.60;;;;;;10210394;28;92650;-65
2023/04/23 12:22:40;;;;;;;;;;;18.90;60.00;;;;;;10209594;28;93540;-65
2023/04/23 12:27:43;;;;;;;;;;;18.90;60.00;;;;;;10209501;28;93548;-66
2023/04/23 12:32:45;;;;;;;;;;;18.90;60.20;;;;;;10206522;28;96920;-65
2023/04/23 12:37:47;;;;;;;;;;;18.80;59.10;;;;;;10207975;28;94783;-66
2023/04/23 12:42:48;;;;;;;;;;;18.80;59.30;;;;;;10191531;28;94503;-66
2023/04/23 12:47:50;;;;;;;;;;;18.80;59.00;;;;;;10206075;28;93422;-66
2023/04/23 12:52:52;;;;;;;;;;;18.80;59.30;;;;;;10208614;28;93111;-66
2023/04/23 12:57:54;;;;;;;;;;;18.80;59.40;;;;;;10207452;28;93849;-66
2023/04/23 13:02:56;;;;;;;;;;;18.70;59.30;;;;;;10207812;28;93417;-66
2023/04/23 13:07:58;;;;;;;;;;;18.70;59.40;;;;;;10208409;28;92734;-66
2023/04/23 13:13:00;;;;;;;;;;;18.80;59.60;;;;;;10208033;28;93437;-67
2023/04/23 13:18:02;;;;;;;;;;;18.80;59.70;;;;;;10190708;28;94709;-66
2023/04/23 13:23:04;;;;;;;;;;;18.80;59.30;;;;;;10205402;28;97179;-67
2023/04/23 13:28:05;;;;;;;;;;;18.80;59.30;;;;;;10208292;28;94679;-66
2023/04/23 13:33:07;;;;;;;;;;;18.80;58.70;;;;;;10208243;28;94473;-67
2023/04/23 13:38:09;;;;;;;;;;;18.80;58.20;;;;;;10207406;28;94597;-65
2023/04/23 13:43:11;;;;;;;;;;;18.70;58.10;;;;;;10189703;28;94333;-67
2023/04/23 13:48:13;;;;;;;;;;;18.70;58.50;;;;;;10205244;28;94477;-65
2023/04/23 13:53:15;;;;;;;;;;;18.70;59.10;;;;;;10207133;28;93449;-66
2023/04/23 13:58:17;;;;;;;;;;;18.70;59.10;;;;;;10210910;28;92498;-66
2023/04/23 14:03:19;;;;;;;;;;;18.70;59.20;;;;;;10195469;28;93469;-66
2023/04/23 14:08:21;;;;;;;;;;;18.60;59.60;;;;;;10213436;28;93067;-66
2023/04/23 14:13:23;;;;;;;;;;;18.60;59.80;;;;;;10210696;28;97111;-66
2023/04/23 14:18:24;;;;;;;;;;;18.60;59.90;;;;;;10212701;28;94506;-66
2023/04/23 14:23:41;;;;;;;;;;;18.60;60.10;;;;;;10213392;28;94412;-64
2023/04/23 14:28:49;;;;;;;;;;;18.50;60.10;;;;;;10212948;28;94605;-65
2023/04/23 14:33:51;;;;;;;;;;;18.50;60.70;;;;;;10195938;28;94505;-65
2023/04/23 14:38:53;;;;;;;;;;;18.50;60.90;;;;;;10213121;28;93443;-65
2023/04/23 14:43:54;;;;;;;;;;;18.50;61.10;;;;;;10188504;28;94372;-66
2023/04/23 14:48:56;;;;;;;;;;;18.50;62.20;;;;;;10154207;28;93196;-67
2023/04/23 14:53:58;;;;;;;;;;;18.60;62.60;;;;;;10131368;28;93352;-64
2023/04/23 14:59:00;;;;;;;;;;;18.70;63.00;;;;;;10130734;28;94675;-63
2023/04/23 15:04:02;;;;;;;;;;;18.80;63.30;;;;;;10122268;28;95574;-64
2023/04/23 15:09:04;;;;;;;;;;;18.80;63.80;;;;;;10131051;28;94407;-64
2023/04/23 15:14:22;;;;;;;;;;;18.80;62.90;;;;;;10132208;28;94467;-65
2023/04/23 15:19:24;;;;;;;;;;;18.80;63.50;;;;;;10130565;28;94303;-66
2023/04/23 15:24:26;;;;;;;;;;;18.90;64.00;;;;;;10131369;28;93526;-65
2023/04/23 15:29:28;;;;;;;;;;;18.90;64.50;;;;;;10131739;28;93103;-64
2023/04/23 15:34:30;;;;;;;;;;;19.00;64.60;;;;;;10132449;28;93987;-65
2023/04/23 15:39:32;;;;;;;;;;;19.10;64.80;;;;;;10115210;28;93939;-66
2023/04/23 15:44:34;;;;;;;;;;;19.20;66.10;;;;;;10130010;28;94164;-66
2023/04/23 15:49:35;;;;;;;;;;;19.30;66.40;;;;;;10151066;28;93494;-66
2023/04/23 15:54:37;;;;;;;;;;;19.50;68.80;;;;;;10167518;28;96523;-61
2023/04/23 15:59:39;;;;;;;;;;;19.70;72.30;;;;;;10169990;28;93508;-65
2023/04/23 16:04:41;;;;;;;;;;;20.00;73.90;;;;;;10169177;28;94049;-67
2023/04/23 16:09:43;;;;;;;;;;;20.30;75.30;;;;;;10169597;28;94504;-69
2023/04/23 16:14:45;;;;;;;;;;;20.90;75.00;;;;;;10170014;28;93359;-66
2023/04/23 16:19:47;;;;;;;;;;;21.20;75.20;;;;;;10168547;28;93055;-64
2023/04/23 16:24:49;;;;;;;;;;;21.70;74.30;;;;;;10151611;28;93645;-66
2023/04/23 16:29:50;;;;;;;;;;;21.70;72.40;;;;;;10171269;28;92885;-67
2023/04/23 16:34:52;;;;;;;;;;;21.60;72.50;;;;;;10168741;28;94667;-66
2023/04/23 16:39:54;;;;;;;;;;;21.40;72.30;;;;;;10169448;28;94597;-66
2023/04/23 16:44:56;;;;;;;;;;;21.30;72.10;;;;;;10166185;28;95715;-66
2023/04/23 16:49:57;;;;;;;;;;;21.30;72.00;;;;;;10193965;28;93430;-66
2023/04/23 16:55:00;;;;;;;;;;;21.20;72.00;;;;;;10208750;28;93136;-66
2023/04/23 17:00:03;;;;;;;;;;;21.10;71.70;;;;;;10174927;28;93622;-66
2023/04/23 17:05:05;;;;;;;;;;;20.90;71.20;;;;;;10167724;28;93509;-65
2023/04/23 17:10:07;;;;;;;;;;;20.90;72.30;;;;;;10168020;28;94486;-64
2023/04/23 17:15:09;;;;;;;;;;;20.80;71.90;;;;;;10167978;28;93535;-65
2023/04/23 17:20:11;;;;;;;;;;;20.70;71.50;;;;;;10166485;28;92915;-66
2023/04/23 17:25:12;;;;;;;;;;;20.50;71.80;;;;;;10167351;28;93426;-66
2023/04/23 17:30:14;;;;;;;;;;;20.50;72.10;;;;;;10166961;28;93391;-66
2023/04/23 17:35:16;;;;;;;;;;;20.30;72.00;;;;;;10162291;28;95915;-66
2023/04/23 17:40:18;;;;;;;;;;;20.30;72.40;;;;;;10167291;28;93581;-66
2023/04/23 17:45:20;;;;;;;;;;;20.20;72.70;;;;;;10166693;28;93189;-67
2023/04/23 17:50:22;;;;;;;;;;;20.20;72.70;;;;;;10165857;28;94456;-67
2023/04/23 17:55:24;;;;;;;;;;;20.10;73.10;;;;;;10166267;28;94675;-66
2023/04/23 18:00:27;;;;;;;;;;;20.00;73.10;;;;;;10166003;28;93423;-67
2023/04/23 18:05:29;;;;;;;;;;;20.00;73.20;;;;;;10165783;28;94285;-66
2023/04/23 18:10:31;;;;;;;;;;;19.90;73.00;;;;;;10180984;28;94043;-67
2023/04/23 18:15:33;;;;;;;;;;;19.90;73.10;;;;;;10166229;28;93657;-66
2023/04/23 18:20:37;;;;;;;;;;;19.80;73.20;;;;;;10166273;28;94561;-66
2023/04/23 18:25:39;;;;;;;;;;;19.80;73.40;;;;;;10163163;28;95854;-66
2023/04/23 18:30:41;;;;;;;;;;;19.70;73.50;;;;;;10165800;28;93681;-64
2023/04/23 18:35:46;;;;;;;;;;;19.70;73.20;;;;;;10161291;28;94037;-65
2023/04/23 18:40:48;;;;;;;;;;;19.60;73.10;;;;;;10165373;28;94019;-65
2023/04/23 18:45:49;;;;;;;;;;;19.60;73.20;;;;;;10168497;28;94951;-66
2023/04/23 18:50:53;;;;;;;;;;;19.50;73.10;;;;;;10171032;28;92735;-65
2023/04/23 18:55:55;;;;;;;;;;;19.50;73.20;;;;;;10170667;28;93704;-65
2023/04/23 19:00:57;;;;;;;;;;;19.50;73.20;;;;;;10171094;28;92512;-64
2023/04/23 19:05:58;;;;;;;;;;;19.40;73.20;;;;;;10170493;28;93799;-64
2023/04/23 19:11:00;;;;;;;;;;;19.40;73.30;;;;;;10170671;28;93368;-64
2023/04/23 19:16:02;;;;;;;;;;;19.40;73.30;;;;;;10169406;28;95711;-64
2023/04/23 19:21:04;;;;;;;;;;;19.30;73.30;;;;;;10164593;28;93676;-64
2023/04/23 19:26:06;;;;;;;;;;;19.40;73.30;;;;;;10171957;28;94550;-64
2023/04/23 19:31:07;;;;;;;;;;;19.30;73.20;;;;;;10170612;28;93255;-65
2023/04/23 19:36:10;;;;;;;;;;;19.30;73.20;;;;;;10169813;28;93492;-64
2023/04/23 19:41:11;;;;;;;;;;;19.30;73.20;;;;;;10171472;28;93413;-64
2023/04/23 19:46:13;;;;;;;;;;;19.30;73.10;;;;;;10169109;28;94547;-65
2023/04/23 19:51:16;;;;;;;;;;;19.30;73.10;;;;;;10186285;28;92597;-64
2023/04/23 19:56:18;;;;;;;;;;;19.20;73.10;;;;;;10169424;28;93621;-65
2023/04/23 20:01:19;;;;;;;;;;;19.30;73.10;;;;;;10170732;28;92606;-65
2023/04/23 20:06:21;;;;;;;;;;;19.20;73.00;;;;;;10168171;28;95857;-65
2023/04/23 20:11:23;;;;;;;;;;;19.20;72.90;;;;;;10152213;28;93583;-65
2023/04/23 20:16:27;;;;;;;;;;;19.20;72.80;;;;;;10169531;28;93714;-65
2023/04/23 20:21:28;;;;;;;;;;;19.10;73.90;;;;;;10168309;28;93608;-65
2023/04/23 20:26:31;;;;;;;;;;;19.10;72.90;;;;;;10171264;28;95359;-65
2023/04/23 20:31:33;;;;;;;;;;;19.10;72.80;;;;;;10169495;28;94231;-66
2023/04/23 20:36:37;;;;;;;;;;;19.10;72.50;;;;;;10168969;28;93655;-65
2023/04/23 20:41:39;;;;;;;;;;;19.00;72.40;;;;;;10169745;28;93662;-65
2023/04/23 20:46:44;;;;;;;;;;;19.00;72.40;;;;;;10168884;28;93396;-65
2023/04/23 20:51:45;;;;;;;;;;;19.00;72.30;;;;;;10168829;28;93511;-65
2023/04/23 20:56:52;;;;;;;;;;;18.90;72.30;;;;;;10148680;28;95632;-65
2023/04/23 21:01:54;;;;;;;;;;;18.90;72.40;;;;;;10168037;28;93502;-65
2023/04/23 21:06:56;;;;;;;;;;;18.80;72.40;;;;;;10150262;28;93649;-65
2023/04/23 21:11:58;;;;;;;;;;;18.80;72.30;;;;;;10150275;28;93615;-65
2023/04/23 21:17:00;;;;;;;;;;;18.80;72.30;;;;;;10168470;28;94389;-65
2023/04/23 21:22:02;;;;;;;;;;;18.70;72.20;;;;;;10167951;28;94524;-65
2023/04/23 21:27:04;;;;;;;;;;;18.70;72.20;;;;;;10166722;28;94499;-64
2023/04/23 21:32:06;;;;;;;;;;;18.70;72.00;;;;;;10168569;28;92658;-65
2023/04/23 21:37:07;;;;;;;;;;;18.70;72.00;;;;;;10167545;28;93374;-65
2023/04/23 21:42:09;;;;;;;;;;;18.70;72.00;;;;;;10151151;28;94426;-65
2023/04/23 21:47:11;;;;;;;;;;;18.60;71.80;;;;;;10147225;28;97222;-64
2023/04/23 21:52:16;;;;;;;;;;;18.70;71.80;;;;;;10151046;28;95242;-64
2023/04/23 21:57:18;;;;;;;;;;;18.60;71.60;;;;;;10167746;28;94542;-64
2023/04/23 22:02:19;;;;;;;;;;;18.60;71.70;;;;;;10166214;28;93543;-64
2023/04/23 22:07:21;;;;;;;;;;;18.60;71.70;;;;;;10166937;28;93130;-64
2023/04/23 22:12:23;;;;;;;;;;;18.60;71.60;;;;;;10166684;28;94467;-65
2023/04/23 22:17:29;;;;;;;;;;;18.60;71.70;;;;;;10167575;28;93106;-64
2023/04/23 22:22:34;;;;;;;;;;;18.60;71.60;;;;;;10174005;28;93788;-65
2023/04/23 22:27:36;;;;;;;;;;;18.50;71.50;;;;;;10156034;28;94465;-65
2023/04/23 22:32:38;;;;;;;;;;;18.60;71.40;;;;;;10172983;28;94274;-65
2023/04/23 22:37:40;;;;;;;;;;;18.50;71.40;;;;;;10170973;28;95734;-65
2023/04/23 22:42:42;;;;;;;;;;;18.50;71.30;;;;;;10173589;28;94414;-65
2023/04/23 22:47:44;;;;;;;;;;;18.50;71.20;;;;;;10171230;28;93747;-65
2023/04/23 22:52:45;;;;;;;;;;;18.50;71.20;;;;;;10172077;28;93716;-65
2023/04/23 22:57:47;;;;;;;;;;;18.50;71.10;;;;;;10173103;28;94690;-65
2023/04/23 23:02:49;;;;;;;;;;;18.50;71.10;;;;;;10172206;28;93445;-65
2023/04/23 23:07:51;;;;;;;;;;;18.50;70.90;;;;;;10172126;28;94711;-64
2023/04/23 23:12:53;;;;;;;;;;;18.50;70.70;;;;;;10172949;28;92707;-64
2023/04/23 23:17:56;;;;;;;;;;;18.50;70.80;;;;;;10171760;28;94246;-65
2023/04/23 23:22:58;;;;;;;;;;;18.50;70.60;;;;;;10172770;28;94649;-64
2023/04/23 23:28:00;;;;;;;;;;;18.50;70.60;;;;;;10152356;28;95741;-65
2023/04/23 23:33:07;;;;;;;;;;;18.50;70.40;;;;;;10153239;28;94350;-65
2023/04/23 23:38:09;;;;;;;;;;;18.50;70.40;;;;;;10171929;28;94429;-65
2023/04/23 23:43:11;;;;;;;;;;;18.50;70.30;;;;;;10171096;28;94729;-64
2023/04/23 23:48:12;;;;;;;;;;;18.40;70.20;;;;;;10169393;28;93475;-64
2023/04/23 23:53:14;;;;;;;;;;;18.40;70.20;;;;;;10171422;28;94454;-64
2023/04/23 23:58:16;;;;;;;;;;;18.40;70.30;;;;;;10170475;28;94016;-64
